sensor_id;sensor_type;location;lat;lon;timestamp;temperature;humidity
22742;DHT22;11538;48.884;8.696;2022-11-10T00:00:47;12.30;99.90
22742;DHT22;11538;48.884;8.696;2022-11-10T00:03:14;12.40;99.90
22742;DHT22;11538;48.884;8.696;2022-11-10T00:05:40;12.40;99.90
22742;DHT22;11538;48.884;8.696;2022-11-10T00:08:09;12.40;99.90
22742;DHT22;11538;48.884;8.696;2022-11-10T00:10:37;12.40;99.90
22742;DHT22;11538;48.884;8.696;2022-11-10T00:13:30;12.40;99.90
22742;DHT22;11538;48.884;8.696;2022-11-10T00:16:01;12.40;99.90
22742;DHT22;11538;48.884;8.696;2022-11-10T00:18:48;12.40;99.90
22742;DHT22;11538;48.884;8.696;2022-11-10T00:21:16;12.30;99.90
22742;DHT22;11538;48.884;8.696;2022-11-10T00:23:44;12.40;99.90
22742;DHT22;11538;48.884;8.696;2022-11-10T00:26:14;12.40;99.90
22742;DHT22;11538;48.884;8.696;2022-11-10T00:28:43;12.40;99.90
22742;DHT22;11538;48.884;8.696;2022-11-10T00:31:10;12.40;99.90
22742;DHT22;11538;48.884;8.696;2022-11-10T00:33:38;12.40;99.90
22742;DHT22;11538;48.884;8.696;2022-11-10T00:36:07;12.30;99.90
22742;DHT22;11538;48.884;8.696;2022-11-10T00:38:34;12.30;99.90
22742;DHT22;11538;48.884;8.696;2022-11-10T00:41:01;12.30;99.90
22742;DHT22;11538;48.884;8.696;2022-11-10T00:43:29;12.30;99.90
22742;DHT22;11538;48.884;8.696;2022-11-10T00:45:56;12.30;99.90
22742;DHT22;11538;48.884;8.696;2022-11-10T00:48:23;12.30;99.90
22742;DHT22;11538;48.884;8.696;2022-11-10T00:50:50;12.30;99.90
22742;DHT22;11538;48.884;8.696;2022-11-10T00:53:17;12.30;99.90
22742;DHT22;11538;48.884;8.696;2022-11-10T00:55:44;12.20;99.90
22742;DHT22;11538;48.884;8.696;2022-11-10T00:58:11;12.20;99.90
22742;DHT22;11538;48.884;8.696;2022-11-10T01:00:38;12.20;99.90
22742;DHT22;11538;48.884;8.696;2022-11-10T01:03:05;12.20;99.90
22742;DHT22;11538;48.884;8.696;2022-11-10T01:05:36;12.20;99.90
22742;DHT22;11538;48.884;8.696;2022-11-10T01:08:03;12.10;99.90
22742;DHT22;11538;48.884;8.696;2022-11-10T01:10:30;12.10;99.90
22742;DHT22;11538;48.884;8.696;2022-11-10T01:12:57;12.10;99.90
22742;DHT22;11538;48.884;8.696;2022-11-10T01:15:24;12.00;99.90
22742;DHT22;11538;48.884;8.696;2022-11-10T01:17:54;12.10;99.90
22742;DHT22;11538;48.884;8.696;2022-11-10T01:20:22;12.00;99.90
22742;DHT22;11538;48.884;8.696;2022-11-10T01:22:49;12.00;99.90
22742;DHT22;11538;48.884;8.696;2022-11-10T01:25:16;12.00;99.90
22742;DHT22;11538;48.884;8.696;2022-11-10T01:27:42;11.90;99.90
22742;DHT22;11538;48.884;8.696;2022-11-10T01:30:09;11.90;99.90
22742;DHT22;11538;48.884;8.696;2022-11-10T01:32:36;11.80;99.90
22742;DHT22;11538;48.884;8.696;2022-11-10T01:35:04;11.80;99.90
22742;DHT22;11538;48.884;8.696;2022-11-10T01:37:31;11.80;99.90
22742;DHT22;11538;48.884;8.696;2022-11-10T01:39:58;11.80;99.90
22742;DHT22;11538;48.884;8.696;2022-11-10T01:42:26;11.70;99.90
22742;DHT22;11538;48.884;8.696;2022-11-10T01:47:52;11.70;99.90
22742;DHT22;11538;48.884;8.696;2022-11-10T01:50:23;11.70;99.90
22742;DHT22;11538;48.884;8.696;2022-11-10T01:52:53;11.70;99.90
22742;DHT22;11538;48.884;8.696;2022-11-10T01:55:23;11.70;99.90
22742;DHT22;11538;48.884;8.696;2022-11-10T01:57:51;11.70;99.90
22742;DHT22;11538;48.884;8.696;2022-11-10T02:00:18;11.70;99.90
22742;DHT22;11538;48.884;8.696;2022-11-10T02:02:48;11.60;99.90
22742;DHT22;11538;48.884;8.696;2022-11-10T02:05:20;11.60;99.90
22742;DHT22;11538;48.884;8.696;2022-11-10T02:07:49;11.60;99.90
22742;DHT22;11538;48.884;8.696;2022-11-10T02:10:18;11.60;99.90
22742;DHT22;11538;48.884;8.696;2022-11-10T02:12:46;11.50;99.90
22742;DHT22;11538;48.884;8.696;2022-11-10T02:15:15;11.50;99.90
22742;DHT22;11538;48.884;8.696;2022-11-10T02:17:47;11.50;99.90
22742;DHT22;11538;48.884;8.696;2022-11-10T02:20:15;11.50;99.90
22742;DHT22;11538;48.884;8.696;2022-11-10T02:22:44;11.40;99.90
22742;DHT22;11538;48.884;8.696;2022-11-10T02:25:15;11.40;99.90
22742;DHT22;11538;48.884;8.696;2022-11-10T02:27:44;11.40;99.90
22742;DHT22;11538;48.884;8.696;2022-11-10T02:30:11;11.40;99.90
22742;DHT22;11538;48.884;8.696;2022-11-10T02:32:38;11.40;99.90
22742;DHT22;11538;48.884;8.696;2022-11-10T02:35:05;11.40;99.90
22742;DHT22;11538;48.884;8.696;2022-11-10T02:37:33;11.30;99.90
22742;DHT22;11538;48.884;8.696;2022-11-10T02:40:00;11.30;99.90
22742;DHT22;11538;48.884;8.696;2022-11-10T02:42:27;11.30;99.90
22742;DHT22;11538;48.884;8.696;2022-11-10T02:44:53;11.20;99.90
22742;DHT22;11538;48.884;8.696;2022-11-10T02:47:21;11.20;99.90
22742;DHT22;11538;48.884;8.696;2022-11-10T02:49:48;11.20;99.90
22742;DHT22;11538;48.884;8.696;2022-11-10T02:52:15;11.10;99.90
22742;DHT22;11538;48.884;8.696;2022-11-10T02:54:42;11.10;99.90
22742;DHT22;11538;48.884;8.696;2022-11-10T02:57:09;11.10;99.90
22742;DHT22;11538;48.884;8.696;2022-11-10T02:59:35;11.00;99.90
22742;DHT22;11538;48.884;8.696;2022-11-10T03:02:02;11.00;99.90
22742;DHT22;11538;48.884;8.696;2022-11-10T03:04:29;11.00;99.90
22742;DHT22;11538;48.884;8.696;2022-11-10T03:06:56;11.00;99.90
22742;DHT22;11538;48.884;8.696;2022-11-10T03:09:22;11.00;99.90
22742;DHT22;11538;48.884;8.696;2022-11-10T03:11:49;10.90;99.90
22742;DHT22;11538;48.884;8.696;2022-11-10T03:14:16;10.90;99.90
22742;DHT22;11538;48.884;8.696;2022-11-10T03:16:43;10.90;99.90
22742;DHT22;11538;48.884;8.696;2022-11-10T03:19:21;10.90;99.90
22742;DHT22;11538;48.884;8.696;2022-11-10T03:21:48;10.90;99.90
22742;DHT22;11538;48.884;8.696;2022-11-10T03:24:15;10.90;99.90
22742;DHT22;11538;48.884;8.696;2022-11-10T03:26:42;10.90;99.90
22742;DHT22;11538;48.884;8.696;2022-11-10T03:29:08;10.90;99.90
22742;DHT22;11538;48.884;8.696;2022-11-10T03:31:35;10.90;99.90
22742;DHT22;11538;48.884;8.696;2022-11-10T03:34:02;10.80;99.90
22742;DHT22;11538;48.884;8.696;2022-11-10T03:36:28;10.80;99.90
22742;DHT22;11538;48.884;8.696;2022-11-10T03:38:55;10.80;99.90
22742;DHT22;11538;48.884;8.696;2022-11-10T03:41:22;10.80;99.90
22742;DHT22;11538;48.884;8.696;2022-11-10T03:43:49;10.80;99.90
22742;DHT22;11538;48.884;8.696;2022-11-10T03:46:16;10.80;99.90
22742;DHT22;11538;48.884;8.696;2022-11-10T03:48:43;10.80;99.90
22742;DHT22;11538;48.884;8.696;2022-11-10T03:51:17;10.70;99.90
22742;DHT22;11538;48.884;8.696;2022-11-10T03:53:44;10.70;99.90
22742;DHT22;11538;48.884;8.696;2022-11-10T03:56:10;10.70;99.90
22742;DHT22;11538;48.884;8.696;2022-11-10T03:58:37;10.70;99.90
22742;DHT22;11538;48.884;8.696;2022-11-10T04:01:04;10.60;99.90
22742;DHT22;11538;48.884;8.696;2022-11-10T04:03:31;10.60;99.90
22742;DHT22;11538;48.884;8.696;2022-11-10T04:05:57;10.60;99.90
22742;DHT22;11538;48.884;8.696;2022-11-10T04:08:43;10.60;99.90
22742;DHT22;11538;48.884;8.696;2022-11-10T04:11:25;10.60;99.90
22742;DHT22;11538;48.884;8.696;2022-11-10T04:14:12;10.60;99.90
22742;DHT22;11538;48.884;8.696;2022-11-10T04:16:57;10.60;99.90
22742;DHT22;11538;48.884;8.696;2022-11-10T04:19:24;10.60;99.90
22742;DHT22;11538;48.884;8.696;2022-11-10T04:21:51;10.50;99.90
22742;DHT22;11538;48.884;8.696;2022-11-10T04:24:19;10.50;99.90
22742;DHT22;11538;48.884;8.696;2022-11-10T04:26:46;10.50;99.90
22742;DHT22;11538;48.884;8.696;2022-11-10T04:29:18;10.40;99.90
22742;DHT22;11538;48.884;8.696;2022-11-10T04:31:45;10.30;99.90
22742;DHT22;11538;48.884;8.696;2022-11-10T04:34:13;10.30;99.90
22742;DHT22;11538;48.884;8.696;2022-11-10T04:36:41;10.20;99.90
22742;DHT22;11538;48.884;8.696;2022-11-10T04:39:09;10.10;99.90
22742;DHT22;11538;48.884;8.696;2022-11-10T04:41:36;10.00;99.90
22742;DHT22;11538;48.884;8.696;2022-11-10T04:44:03;10.00;99.90
22742;DHT22;11538;48.884;8.696;2022-11-10T04:46:32;9.90;99.90
22742;DHT22;11538;48.884;8.696;2022-11-10T04:49:00;9.90;99.90
22742;DHT22;11538;48.884;8.696;2022-11-10T04:51:31;9.90;99.90
22742;DHT22;11538;48.884;8.696;2022-11-10T04:54:01;9.90;99.90
22742;DHT22;11538;48.884;8.696;2022-11-10T04:56:28;9.90;99.90
22742;DHT22;11538;48.884;8.696;2022-11-10T04:58:56;9.90;99.90
22742;DHT22;11538;48.884;8.696;2022-11-10T05:01:24;9.90;99.90
22742;DHT22;11538;48.884;8.696;2022-11-10T05:03:53;9.90;99.90
22742;DHT22;11538;48.884;8.696;2022-11-10T05:06:20;9.80;99.90
22742;DHT22;11538;48.884;8.696;2022-11-10T05:08:48;9.80;99.90
22742;DHT22;11538;48.884;8.696;2022-11-10T05:11:15;9.80;99.90
22742;DHT22;11538;48.884;8.696;2022-11-10T05:13:42;9.80;99.90
22742;DHT22;11538;48.884;8.696;2022-11-10T05:16:10;9.80;99.90
22742;DHT22;11538;48.884;8.696;2022-11-10T05:18:37;9.70;99.90
22742;DHT22;11538;48.884;8.696;2022-11-10T05:21:04;9.70;99.90
22742;DHT22;11538;48.884;8.696;2022-11-10T05:23:32;9.60;99.90
22742;DHT22;11538;48.884;8.696;2022-11-10T05:26:05;9.60;99.90
22742;DHT22;11538;48.884;8.696;2022-11-10T05:28:40;9.60;99.90
22742;DHT22;11538;48.884;8.696;2022-11-10T05:31:08;9.50;99.90
22742;DHT22;11538;48.884;8.696;2022-11-10T05:33:36;9.50;99.90
22742;DHT22;11538;48.884;8.696;2022-11-10T05:36:04;9.50;99.90
22742;DHT22;11538;48.884;8.696;2022-11-10T05:38:32;9.50;99.90
22742;DHT22;11538;48.884;8.696;2022-11-10T05:40:58;9.50;99.90
22742;DHT22;11538;48.884;8.696;2022-11-10T05:43:25;9.40;99.90
22742;DHT22;11538;48.884;8.696;2022-11-10T05:45:52;9.40;99.90
22742;DHT22;11538;48.884;8.696;2022-11-10T05:48:19;9.40;99.90
22742;DHT22;11538;48.884;8.696;2022-11-10T05:50:46;9.40;99.90
22742;DHT22;11538;48.884;8.696;2022-11-10T05:53:12;9.40;99.90
22742;DHT22;11538;48.884;8.696;2022-11-10T05:55:39;9.30;99.90
22742;DHT22;11538;48.884;8.696;2022-11-10T05:58:06;9.30;99.90
22742;DHT22;11538;48.884;8.696;2022-11-10T06:00:33;9.30;99.90
22742;DHT22;11538;48.884;8.696;2022-11-10T06:03:02;9.30;99.90
22742;DHT22;11538;48.884;8.696;2022-11-10T06:05:39;9.30;99.90
22742;DHT22;11538;48.884;8.696;2022-11-10T06:08:06;9.30;99.90
22742;DHT22;11538;48.884;8.696;2022-11-10T06:10:33;9.20;99.90
22742;DHT22;11538;48.884;8.696;2022-11-10T06:13:00;9.30;99.90
22742;DHT22;11538;48.884;8.696;2022-11-10T06:15:28;9.30;99.90
22742;DHT22;11538;48.884;8.696;2022-11-10T06:17:55;9.20;99.90
22742;DHT22;11538;48.884;8.696;2022-11-10T06:20:23;9.20;99.90
22742;DHT22;11538;48.884;8.696;2022-11-10T06:23:24;9.20;99.90
22742;DHT22;11538;48.884;8.696;2022-11-10T06:25:43;9.20;99.90
22742;DHT22;11538;48.884;8.696;2022-11-10T06:28:10;9.20;99.90
22742;DHT22;11538;48.884;8.696;2022-11-10T06:30:37;9.10;99.90
22742;DHT22;11538;48.884;8.696;2022-11-10T06:33:04;9.10;99.90
22742;DHT22;11538;48.884;8.696;2022-11-10T06:35:30;9.10;99.90
22742;DHT22;11538;48.884;8.696;2022-11-10T06:38:02;9.00;99.90
22742;DHT22;11538;48.884;8.696;2022-11-10T06:40:32;9.00;99.90
22742;DHT22;11538;48.884;8.696;2022-11-10T06:42:59;9.00;99.90
22742;DHT22;11538;48.884;8.696;2022-11-10T06:45:27;9.00;99.90
22742;DHT22;11538;48.884;8.696;2022-11-10T06:48:01;9.00;99.90
22742;DHT22;11538;48.884;8.696;2022-11-10T06:50:39;9.00;99.90
22742;DHT22;11538;48.884;8.696;2022-11-10T06:53:05;9.00;99.90
22742;DHT22;11538;48.884;8.696;2022-11-10T06:55:33;9.00;99.90
22742;DHT22;11538;48.884;8.696;2022-11-10T06:57:59;9.00;99.90
22742;DHT22;11538;48.884;8.696;2022-11-10T07:00:26;9.00;99.90
22742;DHT22;11538;48.884;8.696;2022-11-10T07:02:58;9.10;99.90
22742;DHT22;11538;48.884;8.696;2022-11-10T07:05:25;9.00;99.90
22742;DHT22;11538;48.884;8.696;2022-11-10T07:07:52;9.00;99.90
22742;DHT22;11538;48.884;8.696;2022-11-10T07:10:19;9.00;99.90
22742;DHT22;11538;48.884;8.696;2022-11-10T07:12:46;9.00;99.90
22742;DHT22;11538;48.884;8.696;2022-11-10T07:15:12;9.00;99.90
22742;DHT22;11538;48.884;8.696;2022-11-10T07:17:39;9.00;99.90
22742;DHT22;11538;48.884;8.696;2022-11-10T07:20:07;8.90;99.90
22742;DHT22;11538;48.884;8.696;2022-11-10T07:22:34;8.90;99.90
22742;DHT22;11538;48.884;8.696;2022-11-10T07:25:01;9.00;99.90
22742;DHT22;11538;48.884;8.696;2022-11-10T07:27:27;9.00;99.90
22742;DHT22;11538;48.884;8.696;2022-11-10T07:29:54;9.00;99.90
22742;DHT22;11538;48.884;8.696;2022-11-10T07:32:21;9.00;99.90
22742;DHT22;11538;48.884;8.696;2022-11-10T07:34:47;9.00;99.90
22742;DHT22;11538;48.884;8.696;2022-11-10T07:37:14;9.00;99.90
22742;DHT22;11538;48.884;8.696;2022-11-10T07:39:41;9.00;99.90
22742;DHT22;11538;48.884;8.696;2022-11-10T07:42:07;9.10;99.90
22742;DHT22;11538;48.884;8.696;2022-11-10T07:44:34;9.10;99.90
22742;DHT22;11538;48.884;8.696;2022-11-10T07:47:01;9.00;99.90
22742;DHT22;11538;48.884;8.696;2022-11-10T07:49:28;9.10;99.90
22742;DHT22;11538;48.884;8.696;2022-11-10T07:51:55;9.10;99.90
22742;DHT22;11538;48.884;8.696;2022-11-10T07:54:21;9.10;99.90
22742;DHT22;11538;48.884;8.696;2022-11-10T07:56:48;9.10;99.90
22742;DHT22;11538;48.884;8.696;2022-11-10T07:59:15;9.10;99.90
22742;DHT22;11538;48.884;8.696;2022-11-10T08:01:41;9.20;99.90
22742;DHT22;11538;48.884;8.696;2022-11-10T08:04:09;9.30;99.90
22742;DHT22;11538;48.884;8.696;2022-11-10T08:06:36;9.30;99.90
22742;DHT22;11538;48.884;8.696;2022-11-10T08:09:03;9.40;99.90
22742;DHT22;11538;48.884;8.696;2022-11-10T08:11:30;9.50;99.90
22742;DHT22;11538;48.884;8.696;2022-11-10T08:13:56;9.60;99.90
22742;DHT22;11538;48.884;8.696;2022-11-10T08:16:23;9.70;99.90
22742;DHT22;11538;48.884;8.696;2022-11-10T08:18:50;9.80;99.90
22742;DHT22;11538;48.884;8.696;2022-11-10T08:21:17;9.90;99.90
22742;DHT22;11538;48.884;8.696;2022-11-10T08:23:43;10.00;99.90
22742;DHT22;11538;48.884;8.696;2022-11-10T08:26:10;10.20;99.90
22742;DHT22;11538;48.884;8.696;2022-11-10T08:28:37;10.40;99.90
22742;DHT22;11538;48.884;8.696;2022-11-10T08:31:03;10.50;99.90
22742;DHT22;11538;48.884;8.696;2022-11-10T08:33:31;10.70;99.90
22742;DHT22;11538;48.884;8.696;2022-11-10T08:35:59;10.80;99.90
22742;DHT22;11538;48.884;8.696;2022-11-10T08:38:26;11.00;99.90
22742;DHT22;11538;48.884;8.696;2022-11-10T08:40:54;11.20;99.90
22742;DHT22;11538;48.884;8.696;2022-11-10T08:43:22;11.40;99.90
22742;DHT22;11538;48.884;8.696;2022-11-10T08:45:52;11.50;99.90
22742;DHT22;11538;48.884;8.696;2022-11-10T08:48:22;11.80;99.90
22742;DHT22;11538;48.884;8.696;2022-11-10T08:50:52;11.90;99.90
22742;DHT22;11538;48.884;8.696;2022-11-10T08:53:22;12.10;99.90
22742;DHT22;11538;48.884;8.696;2022-11-10T08:55:50;12.30;99.90
22742;DHT22;11538;48.884;8.696;2022-11-10T08:58:18;12.50;99.90
22742;DHT22;11538;48.884;8.696;2022-11-10T09:00:46;12.60;99.90
22742;DHT22;11538;48.884;8.696;2022-11-10T09:03:14;12.70;99.90
22742;DHT22;11538;48.884;8.696;2022-11-10T09:05:46;12.80;99.90
22742;DHT22;11538;48.884;8.696;2022-11-10T09:08:22;12.90;99.90
22742;DHT22;11538;48.884;8.696;2022-11-10T09:10:48;13.00;99.90
22742;DHT22;11538;48.884;8.696;2022-11-10T09:13:17;13.10;99.90
22742;DHT22;11538;48.884;8.696;2022-11-10T09:15:55;13.10;99.90
22742;DHT22;11538;48.884;8.696;2022-11-10T09:18:22;13.30;99.90
22742;DHT22;11538;48.884;8.696;2022-11-10T09:20:49;13.40;99.90
22742;DHT22;11538;48.884;8.696;2022-11-10T09:23:16;13.50;99.90
22742;DHT22;11538;48.884;8.696;2022-11-10T09:25:49;13.60;99.90
22742;DHT22;11538;48.884;8.696;2022-11-10T09:28:17;13.70;99.90
22742;DHT22;11538;48.884;8.696;2022-11-10T09:30:46;13.70;99.90
22742;DHT22;11538;48.884;8.696;2022-11-10T09:33:14;13.80;99.90
22742;DHT22;11538;48.884;8.696;2022-11-10T09:35:41;13.90;99.90
22742;DHT22;11538;48.884;8.696;2022-11-10T09:38:08;14.00;99.90
22742;DHT22;11538;48.884;8.696;2022-11-10T09:43:20;14.10;99.90
22742;DHT22;11538;48.884;8.696;2022-11-10T09:46:03;14.20;99.90
22742;DHT22;11538;48.884;8.696;2022-11-10T09:48:43;14.30;99.90
22742;DHT22;11538;48.884;8.696;2022-11-10T09:51:18;14.30;99.90
22742;DHT22;11538;48.884;8.696;2022-11-10T09:53:50;14.50;99.90
22742;DHT22;11538;48.884;8.696;2022-11-10T09:56:28;14.60;99.90
22742;DHT22;11538;48.884;8.696;2022-11-10T09:58:58;14.70;99.90
22742;DHT22;11538;48.884;8.696;2022-11-10T10:07:19;15.00;99.90
22742;DHT22;11538;48.884;8.696;2022-11-10T10:09:53;15.10;99.90
22742;DHT22;11538;48.884;8.696;2022-11-10T10:12:39;15.20;99.90
22742;DHT22;11538;48.884;8.696;2022-11-10T10:15:36;15.20;99.90
22742;DHT22;11538;48.884;8.696;2022-11-10T10:21:12;15.30;99.90
22742;DHT22;11538;48.884;8.696;2022-11-10T10:23:51;15.40;99.90
22742;DHT22;11538;48.884;8.696;2022-11-10T10:26:43;15.40;99.90
22742;DHT22;11538;48.884;8.696;2022-11-10T10:29:21;15.50;99.90
22742;DHT22;11538;48.884;8.696;2022-11-10T10:31:51;15.60;99.90
22742;DHT22;11538;48.884;8.696;2022-11-10T10:34:29;15.70;99.90
22742;DHT22;11538;48.884;8.696;2022-11-10T10:36:57;15.80;99.90
22742;DHT22;11538;48.884;8.696;2022-11-10T10:39:35;15.90;99.90
22742;DHT22;11538;48.884;8.696;2022-11-10T10:42:21;16.00;99.90
22742;DHT22;11538;48.884;8.696;2022-11-10T10:47:45;16.30;99.90
22742;DHT22;11538;48.884;8.696;2022-11-10T10:55:47;16.60;99.90
22742;DHT22;11538;48.884;8.696;2022-11-10T10:58:20;16.70;99.90
22742;DHT22;11538;48.884;8.696;2022-11-10T11:01:37;16.90;99.90
22742;DHT22;11538;48.884;8.696;2022-11-10T11:03:55;17.00;99.90
22742;DHT22;11538;48.884;8.696;2022-11-10T11:06:28;17.10;99.90
22742;DHT22;11538;48.884;8.696;2022-11-10T11:09:04;17.20;99.90
22742;DHT22;11538;48.884;8.696;2022-11-10T11:11:33;17.30;99.90
22742;DHT22;11538;48.884;8.696;2022-11-10T11:14:18;17.40;99.90
22742;DHT22;11538;48.884;8.696;2022-11-10T11:16:57;17.50;99.90
22742;DHT22;11538;48.884;8.696;2022-11-10T11:19:27;17.60;99.90
22742;DHT22;11538;48.884;8.696;2022-11-10T11:29:22;18.10;99.90
22742;DHT22;11538;48.884;8.696;2022-11-10T11:34:48;18.30;99.90
22742;DHT22;11538;48.884;8.696;2022-11-10T11:40:09;18.50;99.90
22742;DHT22;11538;48.884;8.696;2022-11-10T11:43:08;18.50;99.90
22742;DHT22;11538;48.884;8.696;2022-11-10T11:46:02;18.50;99.90
22742;DHT22;11538;48.884;8.696;2022-11-10T11:48:55;18.50;99.90
22742;DHT22;11538;48.884;8.696;2022-11-10T11:51:28;18.50;99.90
22742;DHT22;11538;48.884;8.696;2022-11-10T11:56:57;18.40;99.90
22742;DHT22;11538;48.884;8.696;2022-11-10T12:08:08;18.60;99.90
22742;DHT22;11538;48.884;8.696;2022-11-10T12:16:08;19.00;99.90
22742;DHT22;11538;48.884;8.696;2022-11-10T12:18:46;19.10;99.90
22742;DHT22;11538;48.884;8.696;2022-11-10T12:21:21;19.20;99.90
22742;DHT22;11538;48.884;8.696;2022-11-10T12:27:00;19.40;99.90
22742;DHT22;11538;48.884;8.696;2022-11-10T12:29:46;19.50;99.90
22742;DHT22;11538;48.884;8.696;2022-11-10T12:32:20;19.60;99.90
22742;DHT22;11538;48.884;8.696;2022-11-10T12:37:35;19.80;99.90
22742;DHT22;11538;48.884;8.696;2022-11-10T12:45:55;20.10;99.90
22742;DHT22;11538;48.884;8.696;2022-11-10T12:48:26;20.10;99.90
22742;DHT22;11538;48.884;8.696;2022-11-10T12:53:47;20.30;99.90
22742;DHT22;11538;48.884;8.696;2022-11-10T12:56:16;20.30;99.90
22742;DHT22;11538;48.884;8.696;2022-11-10T12:58:47;20.40;99.90
22742;DHT22;11538;48.884;8.696;2022-11-10T13:01:15;20.40;99.90
22742;DHT22;11538;48.884;8.696;2022-11-10T13:03:57;20.50;99.90
22742;DHT22;11538;48.884;8.696;2022-11-10T13:06:26;20.50;99.90
22742;DHT22;11538;48.884;8.696;2022-11-10T13:08:56;20.50;99.90
22742;DHT22;11538;48.884;8.696;2022-11-10T13:13:57;20.50;99.90
22742;DHT22;11538;48.884;8.696;2022-11-10T13:19:08;20.50;99.90
22742;DHT22;11538;48.884;8.696;2022-11-10T13:26:47;20.40;99.90
22742;DHT22;11538;48.884;8.696;2022-11-10T13:29:19;20.40;99.90
22742;DHT22;11538;48.884;8.696;2022-11-10T13:31:50;20.30;99.90
22742;DHT22;11538;48.884;8.696;2022-11-10T13:36:48;20.20;99.90
22742;DHT22;11538;48.884;8.696;2022-11-10T13:41:46;19.80;99.90
22742;DHT22;11538;48.884;8.696;2022-11-10T13:44:24;19.50;99.90
22742;DHT22;11538;48.884;8.696;2022-11-10T13:47:12;19.20;99.90
22742;DHT22;11538;48.884;8.696;2022-11-10T13:52:20;18.60;99.90
22742;DHT22;11538;48.884;8.696;2022-11-10T13:54:52;18.40;99.90
22742;DHT22;11538;48.884;8.696;2022-11-10T13:57:36;18.10;99.90
22742;DHT22;11538;48.884;8.696;2022-11-10T14:02:45;17.70;99.90
22742;DHT22;11538;48.884;8.696;2022-11-10T14:13:42;17.10;99.90
22742;DHT22;11538;48.884;8.696;2022-11-10T14:16:22;17.00;99.90
22742;DHT22;11538;48.884;8.696;2022-11-10T14:21:31;16.80;99.90
22742;DHT22;11538;48.884;8.696;2022-11-10T14:24:10;16.70;99.90
22742;DHT22;11538;48.884;8.696;2022-11-10T14:26:43;16.50;99.90
22742;DHT22;11538;48.884;8.696;2022-11-10T14:29:32;16.40;99.90
22742;DHT22;11538;48.884;8.696;2022-11-10T14:32:02;16.30;99.90
22742;DHT22;11538;48.884;8.696;2022-11-10T14:34:31;16.20;99.90
22742;DHT22;11538;48.884;8.696;2022-11-10T14:37:01;16.10;99.90
22742;DHT22;11538;48.884;8.696;2022-11-10T14:39:31;16.10;99.90
22742;DHT22;11538;48.884;8.696;2022-11-10T14:42:02;16.00;99.90
22742;DHT22;11538;48.884;8.696;2022-11-10T14:44:31;15.90;99.90
22742;DHT22;11538;48.884;8.696;2022-11-10T14:50:10;15.70;99.90
22742;DHT22;11538;48.884;8.696;2022-11-10T14:52:40;15.70;99.90
22742;DHT22;11538;48.884;8.696;2022-11-10T14:55:23;15.60;99.90
22742;DHT22;11538;48.884;8.696;2022-11-10T14:58:01;15.50;99.90
22742;DHT22;11538;48.884;8.696;2022-11-10T15:00:32;15.50;99.90
22742;DHT22;11538;48.884;8.696;2022-11-10T15:03:02;15.40;99.90
22742;DHT22;11538;48.884;8.696;2022-11-10T15:05:31;15.30;99.90
22742;DHT22;11538;48.884;8.696;2022-11-10T15:07:58;15.30;99.90
22742;DHT22;11538;48.884;8.696;2022-11-10T15:10:40;15.20;99.90
22742;DHT22;11538;48.884;8.696;2022-11-10T15:15:40;15.10;99.90
22742;DHT22;11538;48.884;8.696;2022-11-10T15:18:23;15.00;99.90
22742;DHT22;11538;48.884;8.696;2022-11-10T15:21:13;15.00;99.90
22742;DHT22;11538;48.884;8.696;2022-11-10T15:23:43;14.90;99.90
22742;DHT22;11538;48.884;8.696;2022-11-10T15:26:22;14.80;99.90
22742;DHT22;11538;48.884;8.696;2022-11-10T15:28:50;14.80;99.90
22742;DHT22;11538;48.884;8.696;2022-11-10T15:31:22;14.70;99.90
22742;DHT22;11538;48.884;8.696;2022-11-10T15:33:54;14.60;99.90
22742;DHT22;11538;48.884;8.696;2022-11-10T15:41:42;14.50;99.90
22742;DHT22;11538;48.884;8.696;2022-11-10T15:46:49;14.30;99.90
22742;DHT22;11538;48.884;8.696;2022-11-10T15:51:48;14.10;99.90
22742;DHT22;11538;48.884;8.696;2022-11-10T15:54:16;14.00;99.90
22742;DHT22;11538;48.884;8.696;2022-11-10T15:56:46;13.90;99.90
22742;DHT22;11538;48.884;8.696;2022-11-10T15:59:13;13.90;99.90
22742;DHT22;11538;48.884;8.696;2022-11-10T16:01:40;13.80;99.90
22742;DHT22;11538;48.884;8.696;2022-11-10T16:04:08;13.70;99.90
22742;DHT22;11538;48.884;8.696;2022-11-10T16:06:36;13.60;99.90
22742;DHT22;11538;48.884;8.696;2022-11-10T16:09:04;13.50;99.90
22742;DHT22;11538;48.884;8.696;2022-11-10T16:11:33;13.50;99.90
22742;DHT22;11538;48.884;8.696;2022-11-10T16:14:01;13.40;99.90
22742;DHT22;11538;48.884;8.696;2022-11-10T16:16:29;13.30;99.90
22742;DHT22;11538;48.884;8.696;2022-11-10T16:18:57;13.30;99.90
22742;DHT22;11538;48.884;8.696;2022-11-10T16:21:24;13.30;99.90
22742;DHT22;11538;48.884;8.696;2022-11-10T16:23:51;13.20;99.90
22742;DHT22;11538;48.884;8.696;2022-11-10T16:26:20;13.20;99.90
22742;DHT22;11538;48.884;8.696;2022-11-10T16:28:49;13.10;99.90
22742;DHT22;11538;48.884;8.696;2022-11-10T16:31:17;13.00;99.90
22742;DHT22;11538;48.884;8.696;2022-11-10T16:33:45;13.00;99.90
22742;DHT22;11538;48.884;8.696;2022-11-10T16:36:21;12.90;99.90
22742;DHT22;11538;48.884;8.696;2022-11-10T16:38:51;12.90;99.90
22742;DHT22;11538;48.884;8.696;2022-11-10T16:41:20;12.70;99.90
22742;DHT22;11538;48.884;8.696;2022-11-10T16:43:48;12.60;99.90
22742;DHT22;11538;48.884;8.696;2022-11-10T16:46:16;12.50;99.90
22742;DHT22;11538;48.884;8.696;2022-11-10T16:48:49;12.40;99.90
22742;DHT22;11538;48.884;8.696;2022-11-10T16:51:17;12.30;99.90
22742;DHT22;11538;48.884;8.696;2022-11-10T16:53:55;12.20;99.90
22742;DHT22;11538;48.884;8.696;2022-11-10T16:56:24;12.10;99.90
22742;DHT22;11538;48.884;8.696;2022-11-10T16:58:53;12.00;99.90
22742;DHT22;11538;48.884;8.696;2022-11-10T17:01:25;12.00;99.90
22742;DHT22;11538;48.884;8.696;2022-11-10T17:03:55;11.90;99.90
22742;DHT22;11538;48.884;8.696;2022-11-10T17:06:25;11.90;99.90
22742;DHT22;11538;48.884;8.696;2022-11-10T17:08:53;11.90;99.90
22742;DHT22;11538;48.884;8.696;2022-11-10T17:11:24;11.70;99.90
22742;DHT22;11538;48.884;8.696;2022-11-10T17:13:51;11.70;99.90
22742;DHT22;11538;48.884;8.696;2022-11-10T17:16:33;11.60;99.90
22742;DHT22;11538;48.884;8.696;2022-11-10T17:19:02;11.50;99.90
22742;DHT22;11538;48.884;8.696;2022-11-10T17:21:32;11.50;99.90
22742;DHT22;11538;48.884;8.696;2022-11-10T17:24:02;11.40;99.90
22742;DHT22;11538;48.884;8.696;2022-11-10T17:26:30;11.30;99.90
22742;DHT22;11538;48.884;8.696;2022-11-10T17:28:57;11.30;99.90
22742;DHT22;11538;48.884;8.696;2022-11-10T17:31:24;11.30;99.90
22742;DHT22;11538;48.884;8.696;2022-11-10T17:33:51;11.30;99.90
22742;DHT22;11538;48.884;8.696;2022-11-10T17:36:18;11.20;99.90
22742;DHT22;11538;48.884;8.696;2022-11-10T17:38:47;11.30;99.90
22742;DHT22;11538;48.884;8.696;2022-11-10T17:41:16;11.30;99.90
22742;DHT22;11538;48.884;8.696;2022-11-10T17:43:45;11.20;99.90
22742;DHT22;11538;48.884;8.696;2022-11-10T17:46:13;11.20;99.90
22742;DHT22;11538;48.884;8.696;2022-11-10T17:48:40;11.20;99.90